sensor_id;sensor_type;location;lat;lon;timestamp;P1;durP1;ratioP1;P2;durP2;ratioP2
51216;SDS011;37283;49.760;8.648;2024-03-08T00:00:52;20.67;;;15.88;;
51216;SDS011;37283;49.760;8.648;2024-03-08T00:03:19;21.48;;;15.60;;
51216;SDS011;37283;49.760;8.648;2024-03-08T00:05:47;21.52;;;15.68;;
51216;SDS011;37283;49.760;8.648;2024-03-08T00:08:15;20.02;;;15.95;;
51216;SDS011;37283;49.760;8.648;2024-03-08T00:10:42;22.33;;;17.42;;
51216;SDS011;37283;49.760;8.648;2024-03-08T00:13:09;25.25;;;17.48;;
51216;SDS011;37283;49.760;8.648;2024-03-08T00:15:36;21.60;;;16.25;;
51216;SDS011;37283;49.760;8.648;2024-03-08T00:18:04;21.20;;;16.60;;
51216;SDS011;37283;49.760;8.648;2024-03-08T00:20:31;21.25;;;16.35;;
51216;SDS011;37283;49.760;8.648;2024-03-08T00:22:59;21.85;;;16.30;;
51216;SDS011;37283;49.760;8.648;2024-03-08T00:25:26;21.38;;;14.48;;
51216;SDS011;37283;49.760;8.648;2024-03-08T00:27:54;25.83;;;16.98;;
51216;SDS011;37283;49.760;8.648;2024-03-08T00:30:23;22.95;;;16.80;;
51216;SDS011;37283;49.760;8.648;2024-03-08T00:32:51;20.52;;;15.98;;
51216;SDS011;37283;49.760;8.648;2024-03-08T00:35:19;20.63;;;16.20;;
51216;SDS011;37283;49.760;8.648;2024-03-08T00:37:46;21.92;;;16.85;;
51216;SDS011;37283;49.760;8.648;2024-03-08T00:40:13;20.98;;;16.60;;
51216;SDS011;37283;49.760;8.648;2024-03-08T00:42:41;20.42;;;16.30;;
51216;SDS011;37283;49.760;8.648;2024-03-08T00:45:10;20.10;;;16.77;;
51216;SDS011;37283;49.760;8.648;2024-03-08T00:47:39;22.52;;;16.48;;
51216;SDS011;37283;49.760;8.648;2024-03-08T00:50:07;23.80;;;17.88;;
51216;SDS011;37283;49.760;8.648;2024-03-08T00:52:36;20.90;;;16.93;;
51216;SDS011;37283;49.760;8.648;2024-03-08T00:55:04;21.33;;;16.73;;
51216;SDS011;37283;49.760;8.648;2024-03-08T00:57:33;23.70;;;16.65;;
51216;SDS011;37283;49.760;8.648;2024-03-08T01:00:02;21.00;;;17.08;;
51216;SDS011;37283;49.760;8.648;2024-03-08T01:02:30;22.45;;;16.83;;
51216;SDS011;37283;49.760;8.648;2024-03-08T01:04:57;22.83;;;17.52;;
51216;SDS011;37283;49.760;8.648;2024-03-08T01:07:24;22.33;;;17.30;;
51216;SDS011;37283;49.760;8.648;2024-03-08T01:09:52;23.27;;;17.42;;
51216;SDS011;37283;49.760;8.648;2024-03-08T01:12:19;21.13;;;16.05;;
51216;SDS011;37283;49.760;8.648;2024-03-08T01:14:48;21.08;;;16.25;;
51216;SDS011;37283;49.760;8.648;2024-03-08T01:17:15;21.98;;;16.67;;
51216;SDS011;37283;49.760;8.648;2024-03-08T01:19:43;23.77;;;17.15;;
51216;SDS011;37283;49.760;8.648;2024-03-08T01:22:13;20.00;;;17.58;;
51216;SDS011;37283;49.760;8.648;2024-03-08T01:24:41;22.70;;;16.95;;
51216;SDS011;37283;49.760;8.648;2024-03-08T01:27:09;24.92;;;17.65;;
51216;SDS011;37283;49.760;8.648;2024-03-08T01:29:36;23.55;;;16.83;;
51216;SDS011;37283;49.760;8.648;2024-03-08T01:32:04;24.13;;;17.40;;
51216;SDS011;37283;49.760;8.648;2024-03-08T01:34:32;23.42;;;17.38;;
51216;SDS011;37283;49.760;8.648;2024-03-08T01:37:06;23.23;;;16.42;;
51216;SDS011;37283;49.760;8.648;2024-03-08T01:39:33;22.75;;;17.02;;
51216;SDS011;37283;49.760;8.648;2024-03-08T01:42:01;21.60;;;17.33;;
51216;SDS011;37283;49.760;8.648;2024-03-08T01:44:30;28.20;;;17.38;;
51216;SDS011;37283;49.760;8.648;2024-03-08T01:47:00;21.10;;;17.48;;
51216;SDS011;37283;49.760;8.648;2024-03-08T01:49:27;22.48;;;17.25;;
51216;SDS011;37283;49.760;8.648;2024-03-08T01:51:54;24.58;;;17.10;;
51216;SDS011;37283;49.760;8.648;2024-03-08T01:54:22;25.43;;;16.60;;
51216;SDS011;37283;49.760;8.648;2024-03-08T01:56:54;23.52;;;17.30;;
51216;SDS011;37283;49.760;8.648;2024-03-08T01:59:20;24.70;;;17.73;;
51216;SDS011;37283;49.760;8.648;2024-03-08T02:01:47;24.75;;;17.48;;
51216;SDS011;37283;49.760;8.648;2024-03-08T02:04:14;24.95;;;18.08;;
51216;SDS011;37283;49.760;8.648;2024-03-08T02:06:40;21.42;;;16.77;;
51216;SDS011;37283;49.760;8.648;2024-03-08T02:09:07;24.10;;;18.60;;
51216;SDS011;37283;49.760;8.648;2024-03-08T02:11:34;24.17;;;17.85;;
51216;SDS011;37283;49.760;8.648;2024-03-08T02:14:03;22.92;;;17.23;;
51216;SDS011;37283;49.760;8.648;2024-03-08T02:18:59;28.52;;;17.17;;
51216;SDS011;37283;49.760;8.648;2024-03-08T02:21:26;24.67;;;17.65;;
51216;SDS011;37283;49.760;8.648;2024-03-08T02:23:53;25.33;;;18.08;;
51216;SDS011;37283;49.760;8.648;2024-03-08T02:26:19;24.13;;;17.98;;
51216;SDS011;37283;49.760;8.648;2024-03-08T02:28:46;23.80;;;18.10;;
51216;SDS011;37283;49.760;8.648;2024-03-08T02:31:13;25.30;;;18.92;;
51216;SDS011;37283;49.760;8.648;2024-03-08T02:33:39;26.38;;;17.70;;
51216;SDS011;37283;49.760;8.648;2024-03-08T02:36:06;25.17;;;17.38;;
51216;SDS011;37283;49.760;8.648;2024-03-08T02:38:33;23.95;;;17.83;;
51216;SDS011;37283;49.760;8.648;2024-03-08T02:41:00;24.17;;;17.98;;
51216;SDS011;37283;49.760;8.648;2024-03-08T02:43:26;23.85;;;17.65;;
51216;SDS011;37283;49.760;8.648;2024-03-08T02:45:54;24.80;;;18.10;;
51216;SDS011;37283;49.760;8.648;2024-03-08T02:48:20;26.23;;;17.35;;
51216;SDS011;37283;49.760;8.648;2024-03-08T02:50:48;24.75;;;17.63;;
51216;SDS011;37283;49.760;8.648;2024-03-08T02:53:17;24.10;;;17.77;;
51216;SDS011;37283;49.760;8.648;2024-03-08T02:55:45;25.45;;;18.23;;
51216;SDS011;37283;49.760;8.648;2024-03-08T02:58:13;28.08;;;18.83;;
51216;SDS011;37283;49.760;8.648;2024-03-08T03:00:40;24.52;;;18.75;;
51216;SDS011;37283;49.760;8.648;2024-03-08T03:03:07;25.23;;;19.17;;
51216;SDS011;37283;49.760;8.648;2024-03-08T03:05:34;27.98;;;18.77;;
51216;SDS011;37283;49.760;8.648;2024-03-08T03:08:01;25.08;;;18.58;;
51216;SDS011;37283;49.760;8.648;2024-03-08T03:10:30;24.35;;;19.42;;
51216;SDS011;37283;49.760;8.648;2024-03-08T03:12:57;28.10;;;17.90;;
51216;SDS011;37283;49.760;8.648;2024-03-08T03:15:24;25.85;;;18.50;;
51216;SDS011;37283;49.760;8.648;2024-03-08T03:17:53;26.65;;;19.13;;
51216;SDS011;37283;49.760;8.648;2024-03-08T03:20:21;23.55;;;18.23;;
51216;SDS011;37283;49.760;8.648;2024-03-08T03:22:59;26.90;;;18.90;;
51216;SDS011;37283;49.760;8.648;2024-03-08T03:25:27;26.83;;;18.85;;
51216;SDS011;37283;49.760;8.648;2024-03-08T03:28:01;26.83;;;18.88;;
51216;SDS011;37283;49.760;8.648;2024-03-08T03:30:28;26.83;;;18.75;;
51216;SDS011;37283;49.760;8.648;2024-03-08T03:32:59;27.55;;;19.75;;
51216;SDS011;37283;49.760;8.648;2024-03-08T03:35:27;25.58;;;18.48;;
51216;SDS011;37283;49.760;8.648;2024-03-08T03:37:55;28.13;;;18.07;;
51216;SDS011;37283;49.760;8.648;2024-03-08T03:40:32;25.67;;;18.58;;
51216;SDS011;37283;49.760;8.648;2024-03-08T03:42:59;24.55;;;18.48;;
51216;SDS011;37283;49.760;8.648;2024-03-08T03:45:26;26.05;;;20.08;;
51216;SDS011;37283;49.760;8.648;2024-03-08T03:47:53;28.48;;;20.10;;
51216;SDS011;37283;49.760;8.648;2024-03-08T03:50:20;27.75;;;19.23;;
51216;SDS011;37283;49.760;8.648;2024-03-08T03:52:48;29.30;;;21.00;;
51216;SDS011;37283;49.760;8.648;2024-03-08T03:55:14;27.67;;;19.45;;
51216;SDS011;37283;49.760;8.648;2024-03-08T03:57:41;28.98;;;20.88;;
51216;SDS011;37283;49.760;8.648;2024-03-08T04:00:08;27.73;;;19.42;;
51216;SDS011;37283;49.760;8.648;2024-03-08T04:02:40;29.48;;;20.08;;
51216;SDS011;37283;49.760;8.648;2024-03-08T04:05:11;29.35;;;20.13;;
51216;SDS011;37283;49.760;8.648;2024-03-08T04:07:38;28.95;;;19.35;;
51216;SDS011;37283;49.760;8.648;2024-03-08T04:10:05;27.45;;;18.77;;
51216;SDS011;37283;49.760;8.648;2024-03-08T04:12:33;27.83;;;19.60;;
51216;SDS011;37283;49.760;8.648;2024-03-08T04:15:00;26.13;;;18.77;;
51216;SDS011;37283;49.760;8.648;2024-03-08T04:17:27;28.90;;;20.38;;
51216;SDS011;37283;49.760;8.648;2024-03-08T04:19:54;26.73;;;19.58;;
51216;SDS011;37283;49.760;8.648;2024-03-08T04:22:21;30.27;;;21.73;;
51216;SDS011;37283;49.760;8.648;2024-03-08T04:24:47;28.42;;;20.67;;
51216;SDS011;37283;49.760;8.648;2024-03-08T04:27:14;27.83;;;19.58;;
51216;SDS011;37283;49.760;8.648;2024-03-08T04:29:43;26.95;;;20.05;;
51216;SDS011;37283;49.760;8.648;2024-03-08T04:32:09;30.63;;;20.90;;
51216;SDS011;37283;49.760;8.648;2024-03-08T04:34:36;27.17;;;20.05;;
51216;SDS011;37283;49.760;8.648;2024-03-08T04:37:03;32.65;;;21.45;;
51216;SDS011;37283;49.760;8.648;2024-03-08T04:39:31;27.90;;;20.27;;
51216;SDS011;37283;49.760;8.648;2024-03-08T04:41:59;31.88;;;22.55;;
51216;SDS011;37283;49.760;8.648;2024-03-08T04:44:32;29.98;;;21.65;;
51216;SDS011;37283;49.760;8.648;2024-03-08T04:47:00;28.73;;;21.52;;
51216;SDS011;37283;49.760;8.648;2024-03-08T04:49:27;29.17;;;20.75;;
51216;SDS011;37283;49.760;8.648;2024-03-08T04:51:54;31.85;;;21.58;;
51216;SDS011;37283;49.760;8.648;2024-03-08T04:54:20;29.00;;;21.35;;
51216;SDS011;37283;49.760;8.648;2024-03-08T04:56:47;28.83;;;20.83;;
51216;SDS011;37283;49.760;8.648;2024-03-08T04:59:13;28.80;;;20.30;;
51216;SDS011;37283;49.760;8.648;2024-03-08T05:01:40;32.78;;;21.85;;
51216;SDS011;37283;49.760;8.648;2024-03-08T05:04:07;30.67;;;22.73;;
51216;SDS011;37283;49.760;8.648;2024-03-08T05:06:35;30.10;;;21.27;;
51216;SDS011;37283;49.760;8.648;2024-03-08T05:09:03;31.13;;;21.92;;
51216;SDS011;37283;49.760;8.648;2024-03-08T05:11:43;30.90;;;22.05;;
51216;SDS011;37283;49.760;8.648;2024-03-08T05:14:16;30.42;;;21.33;;
51216;SDS011;37283;49.760;8.648;2024-03-08T05:16:44;31.67;;;20.65;;
51216;SDS011;37283;49.760;8.648;2024-03-08T05:19:15;30.40;;;21.33;;
51216;SDS011;37283;49.760;8.648;2024-03-08T05:21:49;30.17;;;22.30;;
51216;SDS011;37283;49.760;8.648;2024-03-08T05:24:16;33.17;;;22.02;;
51216;SDS011;37283;49.760;8.648;2024-03-08T05:26:44;34.00;;;22.23;;
51216;SDS011;37283;49.760;8.648;2024-03-08T05:29:11;32.65;;;21.80;;
51216;SDS011;37283;49.760;8.648;2024-03-08T05:31:48;31.88;;;22.35;;
51216;SDS011;37283;49.760;8.648;2024-03-08T05:34:16;30.42;;;21.80;;
51216;SDS011;37283;49.760;8.648;2024-03-08T05:36:43;32.70;;;22.58;;
51216;SDS011;37283;49.760;8.648;2024-03-08T05:39:18;31.58;;;21.65;;
51216;SDS011;37283;49.760;8.648;2024-03-08T05:41:45;32.03;;;20.85;;
51216;SDS011;37283;49.760;8.648;2024-03-08T05:44:13;32.60;;;22.27;;
51216;SDS011;37283;49.760;8.648;2024-03-08T05:46:39;33.40;;;22.95;;
51216;SDS011;37283;49.760;8.648;2024-03-08T05:49:06;31.35;;;21.70;;
51216;SDS011;37283;49.760;8.648;2024-03-08T05:51:34;32.10;;;22.48;;
51216;SDS011;37283;49.760;8.648;2024-03-08T05:54:01;34.35;;;23.02;;
51216;SDS011;37283;49.760;8.648;2024-03-08T05:56:32;32.72;;;23.00;;
51216;SDS011;37283;49.760;8.648;2024-03-08T05:58:59;33.10;;;22.77;;
51216;SDS011;37283;49.760;8.648;2024-03-08T06:01:27;34.38;;;22.35;;
51216;SDS011;37283;49.760;8.648;2024-03-08T06:03:54;31.25;;;22.13;;
51216;SDS011;37283;49.760;8.648;2024-03-08T06:06:24;33.92;;;22.20;;
51216;SDS011;37283;49.760;8.648;2024-03-08T06:08:51;33.28;;;23.08;;
51216;SDS011;37283;49.760;8.648;2024-03-08T06:11:19;30.35;;;22.23;;
51216;SDS011;37283;49.760;8.648;2024-03-08T06:13:46;34.40;;;23.08;;
51216;SDS011;37283;49.760;8.648;2024-03-08T06:16:13;32.88;;;22.52;;
51216;SDS011;37283;49.760;8.648;2024-03-08T06:18:39;33.42;;;23.83;;
51216;SDS011;37283;49.760;8.648;2024-03-08T06:21:07;32.30;;;22.77;;
51216;SDS011;37283;49.760;8.648;2024-03-08T06:23:42;32.20;;;22.85;;
51216;SDS011;37283;49.760;8.648;2024-03-08T06:26:09;30.30;;;22.33;;
51216;SDS011;37283;49.760;8.648;2024-03-08T06:28:35;31.90;;;23.02;;
51216;SDS011;37283;49.760;8.648;2024-03-08T06:31:02;38.05;;;24.27;;
51216;SDS011;37283;49.760;8.648;2024-03-08T06:33:29;31.95;;;22.58;;
51216;SDS011;37283;49.760;8.648;2024-03-08T06:35:57;33.45;;;23.38;;
51216;SDS011;37283;49.760;8.648;2024-03-08T06:38:24;31.23;;;22.85;;
51216;SDS011;37283;49.760;8.648;2024-03-08T06:40:51;31.15;;;23.13;;
51216;SDS011;37283;49.760;8.648;2024-03-08T06:43:18;35.65;;;23.42;;
51216;SDS011;37283;49.760;8.648;2024-03-08T06:45:47;30.07;;;22.50;;
51216;SDS011;37283;49.760;8.648;2024-03-08T06:48:17;29.58;;;22.42;;
51216;SDS011;37283;49.760;8.648;2024-03-08T06:50:46;32.92;;;22.73;;
51216;SDS011;37283;49.760;8.648;2024-03-08T06:53:13;31.75;;;22.67;;
51216;SDS011;37283;49.760;8.648;2024-03-08T06:55:40;32.20;;;23.50;;
51216;SDS011;37283;49.760;8.648;2024-03-08T06:58:06;32.33;;;22.85;;
51216;SDS011;37283;49.760;8.648;2024-03-08T07:00:33;29.90;;;21.45;;
51216;SDS011;37283;49.760;8.648;2024-03-08T07:03:00;30.15;;;21.77;;
51216;SDS011;37283;49.760;8.648;2024-03-08T07:05:30;36.50;;;23.05;;
51216;SDS011;37283;49.760;8.648;2024-03-08T07:07:57;29.92;;;21.70;;
51216;SDS011;37283;49.760;8.648;2024-03-08T07:10:24;31.17;;;22.70;;
51216;SDS011;37283;49.760;8.648;2024-03-08T07:12:51;29.83;;;21.73;;
51216;SDS011;37283;49.760;8.648;2024-03-08T07:15:20;33.10;;;23.30;;
51216;SDS011;37283;49.760;8.648;2024-03-08T07:17:47;31.83;;;22.77;;
51216;SDS011;37283;49.760;8.648;2024-03-08T07:20:14;31.88;;;21.77;;
51216;SDS011;37283;49.760;8.648;2024-03-08T07:22:45;28.60;;;21.60;;
51216;SDS011;37283;49.760;8.648;2024-03-08T07:25:14;31.42;;;22.83;;
51216;SDS011;37283;49.760;8.648;2024-03-08T07:27:51;29.33;;;21.70;;
51216;SDS011;37283;49.760;8.648;2024-03-08T07:30:21;30.27;;;22.55;;
51216;SDS011;37283;49.760;8.648;2024-03-08T07:33:10;28.80;;;21.30;;
51216;SDS011;37283;49.760;8.648;2024-03-08T07:35:40;30.80;;;22.65;;
51216;SDS011;37283;49.760;8.648;2024-03-08T07:38:08;29.90;;;21.95;;
51216;SDS011;37283;49.760;8.648;2024-03-08T07:40:37;29.25;;;20.85;;
51216;SDS011;37283;49.760;8.648;2024-03-08T07:43:10;33.33;;;22.27;;
51216;SDS011;37283;49.760;8.648;2024-03-08T07:45:37;33.20;;;23.23;;
51216;SDS011;37283;49.760;8.648;2024-03-08T07:48:04;28.98;;;20.83;;
51216;SDS011;37283;49.760;8.648;2024-03-08T07:50:36;29.17;;;20.88;;
51216;SDS011;37283;49.760;8.648;2024-03-08T07:53:09;30.50;;;21.50;;
51216;SDS011;37283;49.760;8.648;2024-03-08T07:55:36;30.58;;;21.27;;
51216;SDS011;37283;49.760;8.648;2024-03-08T07:58:02;29.30;;;20.70;;
51216;SDS011;37283;49.760;8.648;2024-03-08T08:00:30;27.92;;;21.75;;
51216;SDS011;37283;49.760;8.648;2024-03-08T08:02:58;27.75;;;21.05;;
51216;SDS011;37283;49.760;8.648;2024-03-08T08:05:25;30.85;;;20.55;;
51216;SDS011;37283;49.760;8.648;2024-03-08T08:07:52;28.42;;;20.83;;
51216;SDS011;37283;49.760;8.648;2024-03-08T08:10:19;27.88;;;19.58;;
51216;SDS011;37283;49.760;8.648;2024-03-08T08:12:51;28.75;;;19.52;;
51216;SDS011;37283;49.760;8.648;2024-03-08T08:15:18;26.08;;;20.27;;
51216;SDS011;37283;49.760;8.648;2024-03-08T08:17:45;29.73;;;20.58;;
51216;SDS011;37283;49.760;8.648;2024-03-08T08:20:12;26.02;;;19.80;;
51216;SDS011;37283;49.760;8.648;2024-03-08T08:22:39;28.90;;;18.00;;
51216;SDS011;37283;49.760;8.648;2024-03-08T08:25:07;22.98;;;18.48;;
51216;SDS011;37283;49.760;8.648;2024-03-08T08:27:33;24.40;;;19.13;;
51216;SDS011;37283;49.760;8.648;2024-03-08T08:30:00;26.13;;;18.88;;
51216;SDS011;37283;49.760;8.648;2024-03-08T08:32:27;25.17;;;17.95;;
51216;SDS011;37283;49.760;8.648;2024-03-08T08:34:54;25.13;;;19.27;;
51216;SDS011;37283;49.760;8.648;2024-03-08T08:37:20;25.95;;;17.55;;
51216;SDS011;37283;49.760;8.648;2024-03-08T08:39:50;24.77;;;17.77;;
51216;SDS011;37283;49.760;8.648;2024-03-08T08:42:18;24.80;;;18.05;;
51216;SDS011;37283;49.760;8.648;2024-03-08T08:44:44;21.73;;;16.90;;
51216;SDS011;37283;49.760;8.648;2024-03-08T08:47:12;25.10;;;17.20;;
51216;SDS011;37283;49.760;8.648;2024-03-08T08:49:42;24.05;;;17.13;;
51216;SDS011;37283;49.760;8.648;2024-03-08T08:52:09;23.75;;;16.42;;
51216;SDS011;37283;49.760;8.648;2024-03-08T08:54:43;25.08;;;17.85;;
51216;SDS011;37283;49.760;8.648;2024-03-08T08:57:14;23.33;;;17.02;;
51216;SDS011;37283;49.760;8.648;2024-03-08T08:59:40;22.77;;;17.10;;
51216;SDS011;37283;49.760;8.648;2024-03-08T09:02:07;20.23;;;15.60;;
51216;SDS011;37283;49.760;8.648;2024-03-08T09:07:03;20.35;;;15.73;;
51216;SDS011;37283;49.760;8.648;2024-03-08T09:09:32;21.83;;;15.45;;
51216;SDS011;37283;49.760;8.648;2024-03-08T09:11:59;20.27;;;15.43;;
51216;SDS011;37283;49.760;8.648;2024-03-08T09:14:26;21.40;;;15.95;;
51216;SDS011;37283;49.760;8.648;2024-03-08T09:16:52;20.15;;;15.85;;
51216;SDS011;37283;49.760;8.648;2024-03-08T09:19:19;19.92;;;15.25;;
51216;SDS011;37283;49.760;8.648;2024-03-08T09:21:46;20.83;;;15.27;;
51216;SDS011;37283;49.760;8.648;2024-03-08T09:24:13;19.85;;;14.93;;
51216;SDS011;37283;49.760;8.648;2024-03-08T09:26:39;20.50;;;16.45;;
51216;SDS011;37283;49.760;8.648;2024-03-08T09:29:08;19.58;;;14.80;;
51216;SDS011;37283;49.760;8.648;2024-03-08T09:31:37;21.45;;;15.85;;
51216;SDS011;37283;49.760;8.648;2024-03-08T09:34:04;19.42;;;15.45;;
51216;SDS011;37283;49.760;8.648;2024-03-08T09:36:30;21.95;;;16.48;;
51216;SDS011;37283;49.760;8.648;2024-03-08T09:38:59;19.17;;;15.45;;
51216;SDS011;37283;49.760;8.648;2024-03-08T09:41:27;20.30;;;15.60;;
51216;SDS011;37283;49.760;8.648;2024-03-08T09:43:54;20.27;;;15.57;;
51216;SDS011;37283;49.760;8.648;2024-03-08T09:46:22;21.23;;;15.75;;
51216;SDS011;37283;49.760;8.648;2024-03-08T09:48:49;18.95;;;15.40;;
51216;SDS011;37283;49.760;8.648;2024-03-08T09:51:16;21.83;;;15.48;;
51216;SDS011;37283;49.760;8.648;2024-03-08T09:53:43;22.27;;;16.02;;
51216;SDS011;37283;49.760;8.648;2024-03-08T09:56:10;21.75;;;16.13;;
51216;SDS011;37283;49.760;8.648;2024-03-08T09:58:38;22.00;;;16.20;;
51216;SDS011;37283;49.760;8.648;2024-03-08T10:01:20;20.73;;;16.00;;
51216;SDS011;37283;49.760;8.648;2024-03-08T10:03:47;22.60;;;16.00;;
51216;SDS011;37283;49.760;8.648;2024-03-08T10:06:15;19.75;;;16.05;;
51216;SDS011;37283;49.760;8.648;2024-03-08T10:08:41;21.10;;;15.80;;
51216;SDS011;37283;49.760;8.648;2024-03-08T10:13:38;19.67;;;15.73;;
51216;SDS011;37283;49.760;8.648;2024-03-08T10:16:07;21.67;;;15.75;;
51216;SDS011;37283;49.760;8.648;2024-03-08T10:18:34;21.45;;;15.32;;
51216;SDS011;37283;49.760;8.648;2024-03-08T10:21:01;17.73;;;14.77;;
51216;SDS011;37283;49.760;8.648;2024-03-08T10:23:30;19.23;;;15.77;;
51216;SDS011;37283;49.760;8.648;2024-03-08T10:25:58;18.50;;;15.32;;
51216;SDS011;37283;49.760;8.648;2024-03-08T10:28:35;18.40;;;14.93;;
51216;SDS011;37283;49.760;8.648;2024-03-08T10:31:02;19.95;;;15.55;;
51216;SDS011;37283;49.760;8.648;2024-03-08T10:33:28;20.55;;;16.40;;
51216;SDS011;37283;49.760;8.648;2024-03-08T10:35:55;20.95;;;15.52;;
51216;SDS011;37283;49.760;8.648;2024-03-08T10:38:22;20.35;;;15.95;;
51216;SDS011;37283;49.760;8.648;2024-03-08T10:40:49;19.10;;;15.30;;
51216;SDS011;37283;49.760;8.648;2024-03-08T10:45:55;19.27;;;15.77;;
51216;SDS011;37283;49.760;8.648;2024-03-08T10:48:31;21.58;;;16.70;;
51216;SDS011;37283;49.760;8.648;2024-03-08T10:51:04;20.83;;;16.08;;
51216;SDS011;37283;49.760;8.648;2024-03-08T10:53:31;22.05;;;16.98;;
51216;SDS011;37283;49.760;8.648;2024-03-08T10:56:00;21.00;;;16.20;;
51216;SDS011;37283;49.760;8.648;2024-03-08T10:58:27;20.75;;;16.52;;
51216;SDS011;37283;49.760;8.648;2024-03-08T11:00:54;21.02;;;15.73;;
51216;SDS011;37283;49.760;8.648;2024-03-08T11:06:07;20.15;;;16.58;;
51216;SDS011;37283;49.760;8.648;2024-03-08T11:08:36;20.88;;;16.05;;
51216;SDS011;37283;49.760;8.648;2024-03-08T11:11:02;22.20;;;16.33;;
51216;SDS011;37283;49.760;8.648;2024-03-08T11:13:35;20.87;;;16.37;;
51216;SDS011;37283;49.760;8.648;2024-03-08T11:16:02;20.67;;;16.60;;
51216;SDS011;37283;49.760;8.648;2024-03-08T11:18:33;21.73;;;17.13;;
51216;SDS011;37283;49.760;8.648;2024-03-08T11:21:04;23.42;;;15.70;;
51216;SDS011;37283;49.760;8.648;2024-03-08T11:23:34;20.85;;;16.45;;
51216;SDS011;37283;49.760;8.648;2024-03-08T11:26:01;21.10;;;16.55;;
51216;SDS011;37283;49.760;8.648;2024-03-08T11:28:31;20.88;;;16.80;;
51216;SDS011;37283;49.760;8.648;2024-03-08T11:33:28;22.65;;;17.17;;
51216;SDS011;37283;49.760;8.648;2024-03-08T11:36:08;21.17;;;16.13;;
51216;SDS011;37283;49.760;8.648;2024-03-08T11:38:46;21.95;;;16.30;;
51216;SDS011;37283;49.760;8.648;2024-03-08T11:41:16;21.33;;;16.70;;
51216;SDS011;37283;49.760;8.648;2024-03-08T11:43:45;22.80;;;16.58;;
51216;SDS011;37283;49.760;8.648;2024-03-08T11:46:12;18.98;;;15.43;;
51216;SDS011;37283;49.760;8.648;2024-03-08T11:48:40;20.95;;;16.20;;
51216;SDS011;37283;49.760;8.648;2024-03-08T11:51:11;21.88;;;15.55;;
51216;SDS011;37283;49.760;8.648;2024-03-08T11:53:38;21.38;;;15.70;;
51216;SDS011;37283;49.760;8.648;2024-03-08T11:56:06;19.38;;;16.02;;
51216;SDS011;37283;49.760;8.648;2024-03-08T11:58:34;18.40;;;16.13;;
51216;SDS011;37283;49.760;8.648;2024-03-08T12:01:06;19.95;;;15.93;;
51216;SDS011;37283;49.760;8.648;2024-03-08T12:03:33;21.52;;;17.08;;
51216;SDS011;37283;49.760;8.648;2024-03-08T12:06:00;20.55;;;16.40;;
51216;SDS011;37283;49.760;8.648;2024-03-08T12:08:27;18.30;;;14.80;;
51216;SDS011;37283;49.760;8.648;2024-03-08T12:10:56;19.42;;;15.30;;
51216;SDS011;37283;49.760;8.648;2024-03-08T12:16:02;21.40;;;15.60;;
51216;SDS011;37283;49.760;8.648;2024-03-08T12:18:33;19.45;;;15.85;;
51216;SDS011;37283;49.760;8.648;2024-03-08T12:21:07;21.33;;;16.02;;
51216;SDS011;37283;49.760;8.648;2024-03-08T12:23:34;22.20;;;15.90;;
51216;SDS011;37283;49.760;8.648;2024-03-08T12:28:42;19.58;;;16.13;;
51216;SDS011;37283;49.760;8.648;2024-03-08T12:31:15;19.40;;;15.75;;
51216;SDS011;37283;49.760;8.648;2024-03-08T12:33:52;20.77;;;15.32;;
51216;SDS011;37283;49.760;8.648;2024-03-08T12:36:23;20.58;;;15.55;;
51216;SDS011;37283;49.760;8.648;2024-03-08T12:38:50;19.02;;;14.75;;
51216;SDS011;37283;49.760;8.648;2024-03-08T12:41:17;18.77;;;15.35;;
51216;SDS011;37283;49.760;8.648;2024-03-08T12:43:45;19.30;;;14.50;;
51216;SDS011;37283;49.760;8.648;2024-03-08T12:46:15;17.88;;;15.13;;
51216;SDS011;37283;49.760;8.648;2024-03-08T12:48:43;18.02;;;14.95;;
51216;SDS011;37283;49.760;8.648;2024-03-08T12:51:16;18.40;;;14.68;;
51216;SDS011;37283;49.760;8.648;2024-03-08T12:53:44;18.08;;;15.45;;
51216;SDS011;37283;49.760;8.648;2024-03-08T12:56:12;20.55;;;15.52;;
51216;SDS011;37283;49.760;8.648;2024-03-08T12:58:39;18.40;;;15.02;;
51216;SDS011;37283;49.760;8.648;2024-03-08T13:01:07;18.52;;;14.98;;
51216;SDS011;37283;49.760;8.648;2024-03-08T13:03:34;18.27;;;14.82;;
51216;SDS011;37283;49.760;8.648;2024-03-08T13:06:07;17.08;;;14.18;;
51216;SDS011;37283;49.760;8.648;2024-03-08T13:08:37;17.73;;;14.93;;
51216;SDS011;37283;49.760;8.648;2024-03-08T13:11:07;19.83;;;14.77;;
51216;SDS011;37283;49.760;8.648;2024-03-08T13:13:34;17.00;;;14.15;;
51216;SDS011;37283;49.760;8.648;2024-03-08T13:16:06;20.17;;;15.02;;
51216;SDS011;37283;49.760;8.648;2024-03-08T13:18:36;21.30;;;14.30;;
51216;SDS011;37283;49.760;8.648;2024-03-08T13:21:03;19.25;;;15.45;;
51216;SDS011;37283;49.760;8.648;2024-03-08T13:23:35;20.23;;;15.15;;
51216;SDS011;37283;49.760;8.648;2024-03-08T13:26:12;19.67;;;15.15;;
51216;SDS011;37283;49.760;8.648;2024-03-08T13:28:43;16.92;;;14.05;;
51216;SDS011;37283;49.760;8.648;2024-03-08T13:31:12;16.98;;;14.05;;
51216;SDS011;37283;49.760;8.648;2024-03-08T13:33:41;18.35;;;15.52;;
51216;SDS011;37283;49.760;8.648;2024-03-08T13:36:08;17.50;;;15.43;;
51216;SDS011;37283;49.760;8.648;2024-03-08T13:41:10;17.88;;;14.98;;
51216;SDS011;37283;49.760;8.648;2024-03-08T13:43:38;18.50;;;14.70;;
51216;SDS011;37283;49.760;8.648;2024-03-08T13:46:06;20.07;;;15.60;;
51216;SDS011;37283;49.760;8.648;2024-03-08T13:48:33;16.80;;;14.20;;
51216;SDS011;37283;49.760;8.648;2024-03-08T13:51:00;19.92;;;15.38;;
51216;SDS011;37283;49.760;8.648;2024-03-08T13:53:27;18.42;;;15.13;;
51216;SDS011;37283;49.760;8.648;2024-03-08T13:55:53;18.60;;;15.43;;
51216;SDS011;37283;49.760;8.648;2024-03-08T13:58:20;18.33;;;15.32;;
51216;SDS011;37283;49.760;8.648;2024-03-08T14:00:47;18.30;;;14.93;;
51216;SDS011;37283;49.760;8.648;2024-03-08T14:03:13;19.25;;;15.07;;
51216;SDS011;37283;49.760;8.648;2024-03-08T14:05:40;19.30;;;14.73;;
51216;SDS011;37283;49.760;8.648;2024-03-08T14:08:09;19.27;;;14.93;;
51216;SDS011;37283;49.760;8.648;2024-03-08T14:10:36;17.25;;;15.35;;
51216;SDS011;37283;49.760;8.648;2024-03-08T14:13:05;18.55;;;14.02;;
51216;SDS011;37283;49.760;8.648;2024-03-08T14:15:33;19.55;;;14.98;;
51216;SDS011;37283;49.760;8.648;2024-03-08T14:18:01;17.92;;;13.98;;
51216;SDS011;37283;49.760;8.648;2024-03-08T14:20:27;16.40;;;14.23;;
51216;SDS011;37283;49.760;8.648;2024-03-08T14:22:54;16.50;;;14.25;;
51216;SDS011;37283;49.760;8.648;2024-03-08T14:25:23;18.35;;;14.55;;
51216;SDS011;37283;49.760;8.648;2024-03-08T14:27:50;17.80;;;14.93;;
51216;SDS011;37283;49.760;8.648;2024-03-08T14:30:24;18.42;;;14.70;;
51216;SDS011;37283;49.760;8.648;2024-03-08T14:32:58;18.33;;;14.90;;
51216;SDS011;37283;49.760;8.648;2024-03-08T14:35:28;19.77;;;15.05;;
51216;SDS011;37283;49.760;8.648;2024-03-08T14:37:58;21.10;;;14.88;;
51216;SDS011;37283;49.760;8.648;2024-03-08T14:40:24;17.85;;;13.88;;
51216;SDS011;37283;49.760;8.648;2024-03-08T14:42:52;15.38;;;13.02;;
51216;SDS011;37283;49.760;8.648;2024-03-08T14:45:19;19.30;;;13.38;;
51216;SDS011;37283;49.760;8.648;2024-03-08T14:47:46;15.95;;;13.60;;
51216;SDS011;37283;49.760;8.648;2024-03-08T14:50:16;18.30;;;12.98;;